Time;durP1;ratioP1;P1;durP2;ratioP2;P2;SDS_P1;SDS_P2;PMS_P1;PMS_P2;Temp;Humidity;BMP_temperature;BMP_pressure;BME280_temperature;BME280_humidity;BME280_pressure;Samples;Min_cycle;Max_cycle;Signal;HPM_P1;HPM_P2
2023/12/05 00:00:03;;;;;;;17.07;11.90;;;0.10;99.90;;;-141.84;80.66;18507.25;5012561;28;20210;-72
2023/12/05 00:02:31;;;;;;;17.57;12.00;;;0.10;99.90;;;-141.84;80.72;18517.41;5013253;28;20279;-70
2023/12/05 00:05:00;;;;;;;17.80;12.13;;;0.10;99.90;;;-141.84;81.08;18537.72;5012990;28;20254;-70
2023/12/05 00:07:28;;;;;;;16.97;11.73;;;0.00;99.90;;;-141.84;80.39;18519.44;5012705;28;20694;-70
2023/12/05 00:09:58;;;;;;;19.20;12.00;;;0.10;99.90;;;-141.84;80.45;18484.91;5013412;28;20315;-69
2023/12/05 00:12:27;;;;;;;17.73;12.30;;;0.10;99.90;;;-141.84;80.53;18497.09;5013310;28;20232;-70
2023/12/05 00:14:55;;;;;;;16.13;11.13;;;0.10;99.90;;;-141.84;80.82;18507.25;5013039;28;20191;-69
2023/12/05 00:17:24;;;;;;;16.50;11.83;;;0.10;99.90;;;-141.84;81.05;18517.41;5013160;28;20256;-70
2023/12/05 00:19:53;;;;;;;17.37;11.67;;;0.00;99.90;;;-141.84;81.53;18537.72;5012868;28;20336;-70
2023/12/05 00:22:21;;;;;;;17.40;11.83;;;0.00;99.90;;;-141.84;81.30;18517.41;5012787;28;20318;-70
2023/12/05 00:24:49;;;;;;;19.27;12.07;;;0.00;99.90;;;-141.84;80.16;18501.16;5012588;28;20230;-70
2023/12/05 00:27:17;;;;;;;18.33;12.40;;;0.10;99.90;;;-141.84;79.45;18452.41;5012616;28;20473;-70
2023/12/05 00:29:47;;;;;;;17.77;12.43;;;0.10;99.90;;;-141.84;79.54;18497.09;5012106;28;20257;-71
2023/12/05 00:32:15;;;;;;;16.50;11.27;;;0.10;99.90;;;-141.84;80.48;18493.03;5012680;28;20602;-69
2023/12/05 00:34:45;;;;;;;17.87;12.13;;;0.20;99.90;;;-141.84;78.85;18466.63;5012235;28;20230;-69
2023/12/05 00:37:14;;;;;;;19.13;12.13;;;0.20;99.90;;;-141.84;79.47;18488.97;5010692;28;20882;-70
2023/12/05 00:39:42;;;;;;;15.73;11.47;;;0.20;99.90;;;-141.84;78.71;18484.91;5008420;28;20654;-70
2023/12/05 00:42:10;;;;;;;16.10;11.63;;;0.20;99.90;;;-141.84;78.52;18521.47;5014326;28;20239;-70
2023/12/05 00:44:38;;;;;;;17.37;12.03;;;0.30;99.90;;;-141.84;79.57;18507.25;4998549;28;20249;-70
2023/12/05 00:47:07;;;;;;;17.33;11.43;;;0.20;99.90;;;-141.84;78.87;18454.44;4993503;28;20692;-70
2023/12/05 00:49:35;;;;;;;16.53;11.20;;;0.30;99.90;;;-141.84;78.71;18503.19;4992761;28;20723;-70
2023/12/05 00:52:06;;;;;;;16.90;11.53;;;0.30;99.90;;;-141.84;78.04;18491.00;4993958;28;20282;-70
2023/12/05 00:54:34;;;;;;;16.23;11.40;;;0.30;99.90;;;-141.84;79.41;18513.34;5012664;28;20310;-71
2023/12/05 00:57:02;;;;;;;17.93;12.30;;;0.30;99.90;;;-141.84;77.44;18460.53;5005413;28;20642;-70
2023/12/05 00:59:31;;;;;;;18.50;12.10;;;0.40;99.90;;;-141.84;78.22;18476.78;5013293;28;20266;-71
2023/12/05 01:01:59;;;;;;;15.93;11.43;;;0.30;99.90;;;-141.84;78.70;18476.78;5013121;28;20230;-70
2023/12/05 01:04:27;;;;;;;16.03;11.73;;;0.30;99.90;;;-141.84;78.99;18482.88;5013617;28;20308;-69
2023/12/05 01:06:56;;;;;;;17.03;11.90;;;0.30;99.90;;;-141.84;78.62;18464.59;5013378;28;20218;-70
2023/12/05 01:09:26;;;;;;;17.63;11.73;;;0.30;99.90;;;-141.84;78.16;18503.19;5012199;28;20234;-70
2023/12/05 01:11:54;;;;;;;17.17;11.67;;;0.30;99.90;;;-141.84;77.58;18450.38;5012190;28;20203;-69
2023/12/05 01:14:23;;;;;;;16.27;11.60;;;0.40;99.90;;;-141.84;77.27;18484.91;5013609;28;20207;-70
2023/12/05 01:16:51;;;;;;;17.93;12.23;;;0.40;99.90;;;-141.84;78.49;18460.53;5012893;28;20296;-69
2023/12/05 01:19:19;;;;;;;17.40;11.73;;;0.30;99.90;;;-141.84;78.07;18484.91;5013242;28;20226;-70
2023/12/05 01:21:47;;;;;;;16.83;11.40;;;0.30;99.90;;;-141.84;77.78;18472.72;5013632;28;20330;-70
2023/12/05 01:24:16;;;;;;;17.77;11.70;;;0.30;99.90;;;-141.84;77.95;18472.72;5013932;28;20313;-69
2023/12/05 01:26:45;;;;;;;17.37;11.80;;;0.40;99.90;;;-141.84;78.73;18458.50;5014035;28;20223;-70
2023/12/05 01:29:14;;;;;;;16.27;12.30;;;0.30;99.90;;;-141.84;78.04;18491.00;5013491;28;20210;-71
2023/12/05 01:31:42;;;;;;;16.57;11.67;;;0.30;99.90;;;-141.84;76.44;18454.44;5013346;28;20222;-70
2023/12/05 01:34:10;;;;;;;17.50;11.70;;;0.30;99.90;;;-141.84;76.68;18491.00;5015696;28;20697;-72
2023/12/05 01:36:38;;;;;;;16.73;11.80;;;0.30;99.90;;;-141.84;77.05;18464.59;5012881;28;20230;-72
2023/12/05 01:39:06;;;;;;;17.70;12.60;;;0.30;99.90;;;-141.84;76.77;18478.81;5012414;28;20250;-70
2023/12/05 01:41:35;;;;;;;18.23;12.30;;;0.30;99.90;;;-141.84;76.88;18482.88;5012611;28;20212;-69
2023/12/05 01:44:05;;;;;;;19.40;13.07;;;0.30;99.90;;;-141.84;76.07;18478.81;5010999;28;20260;-70
2023/12/05 01:46:34;;;;;;;17.20;12.20;;;0.30;99.90;;;-141.84;76.24;18466.63;5011104;28;20735;-70
2023/12/05 01:49:03;;;;;;;18.87;12.77;;;0.30;99.90;;;-141.84;76.33;18450.38;5010728;28;20906;-72
2023/12/05 01:51:42;;;;;;;17.70;12.83;;;0.30;99.90;;;-141.84;75.55;18476.78;5010704;28;20741;-70
2023/12/05 01:54:10;;;;;;;16.73;12.40;;;0.30;99.90;;;-141.84;74.88;18478.81;5010313;28;20240;-71
2023/12/05 01:56:39;;;;;;;16.40;11.73;;;0.40;99.90;;;-141.84;75.52;18468.66;5018724;28;20229;-70
2023/12/05 01:59:08;;;;;;;17.93;12.47;;;0.30;99.90;;;-141.84;76.13;18470.69;5019720;28;20794;-70
2023/12/05 02:01:37;;;;;;;18.27;12.83;;;0.30;99.90;;;-141.84;75.91;18432.09;5010142;28;20455;-71
2023/12/05 02:04:06;;;;;;;19.50;12.00;;;0.40;99.90;;;-141.84;74.88;18462.56;5010265;28;20312;-70
2023/12/05 02:06:35;;;;;;;17.97;12.47;;;0.40;99.90;;;-141.84;74.72;18444.28;5010047;28;20318;-70
2023/12/05 02:09:05;;;;;;;17.67;11.70;;;0.40;99.90;;;-141.84;73.73;18458.50;5010217;28;20244;-71
2023/12/05 02:11:33;;;;;;;18.43;12.33;;;0.50;99.90;;;-141.84;73.64;18464.59;5010720;28;20203;-71
2023/12/05 02:14:02;;;;;;;17.30;11.80;;;0.40;99.90;;;-141.84;73.34;18505.22;5010040;28;20223;-71
2023/12/05 02:16:40;;;;;;;19.73;13.33;;;0.50;99.90;;;-141.84;73.28;18440.22;5009940;28;20658;-71
2023/12/05 02:19:40;;;;;;;17.83;12.67;;;0.40;99.90;;;-141.84;73.25;18458.50;5010134;28;20247;-70
2023/12/05 02:22:26;;;;;;;15.90;10.97;;;0.40;99.90;;;-141.84;73.88;18450.38;5009657;28;20258;-70
2023/12/05 02:25:12;;;;;;;16.60;11.70;;;0.40;99.90;;;-141.84;73.55;18436.16;5010123;28;20242;-71
2023/12/05 02:27:43;;;;;;;16.83;12.13;;;0.40;99.90;;;-141.84;74.17;18501.16;5010778;28;20258;-71
2023/12/05 02:30:14;;;;;;;15.47;11.27;;;0.40;99.90;;;-141.84;73.26;18480.84;5010062;28;20230;-70
2023/12/05 02:32:43;;;;;;;18.00;12.33;;;0.40;99.90;;;-141.84;74.90;18468.66;5009862;28;20245;-67
2023/12/05 02:35:12;;;;;;;16.83;12.00;;;0.40;99.90;;;-141.84;74.45;18482.88;5010507;28;20293;-71
2023/12/05 02:38:07;;;;;;;17.23;11.43;;;0.40;99.90;;;-141.84;75.51;18460.53;5009752;28;20231;-72
2023/12/05 02:40:47;;;;;;;16.40;11.90;;;0.30;99.90;;;-141.84;75.35;18462.56;5008359;28;20253;-71
2023/12/05 02:43:26;;;;;;;16.47;11.70;;;0.30;99.90;;;-141.84;74.79;18466.63;5008748;28;20240;-71
2023/12/05 02:45:56;;;;;;;16.50;11.57;;;0.40;99.90;;;-141.84;75.08;18442.25;5009506;28;20233;-71
2023/12/05 02:48:38;;;;;;;17.27;12.07;;;0.40;99.90;;;-141.84;74.52;18458.50;4993345;28;20277;-70
2023/12/05 02:51:07;;;;;;;19.17;12.07;;;0.40;99.90;;;-141.84;74.86;18442.25;5009943;28;20301;-71
2023/12/05 02:53:35;;;;;;;15.17;11.40;;;0.30;99.90;;;-141.84;73.45;18432.09;5010648;28;20206;-70
2023/12/05 02:56:06;;;;;;;17.37;11.63;;;0.40;99.90;;;-141.84;74.45;18476.78;5012228;28;20233;-71
2023/12/05 02:58:35;;;;;;;19.60;12.20;;;0.40;99.90;;;-141.84;74.51;18456.47;5023552;28;20253;-70
2023/12/05 03:01:04;;;;;;;16.87;12.03;;;0.50;99.90;;;-141.84;75.31;18438.19;5009498;28;20346;-71
2023/12/05 03:03:32;;;;;;;16.33;11.93;;;0.40;99.90;;;-141.84;75.24;18456.47;5009818;28;20306;-71
2023/12/05 03:06:00;;;;;;;16.17;11.50;;;0.40;99.90;;;-141.84;75.40;18468.66;5009863;28;20210;-70
2023/12/05 03:08:29;;;;;;;18.90;12.67;;;0.50;99.90;;;-141.84;75.66;18446.31;5010324;28;20423;-71
2023/12/05 03:10:57;;;;;;;15.90;11.33;;;0.50;99.90;;;-141.84;75.66;18460.53;5009394;28;20638;-70
2023/12/05 03:13:39;;;;;;;16.80;11.67;;;0.50;99.90;;;-141.84;77.27;18486.94;5009546;28;20333;-70
2023/12/05 03:16:09;;;;;;;20.60;12.53;;;0.50;99.90;;;-141.84;77.13;18484.91;5009331;28;20281;-70
2023/12/05 03:18:37;;;;;;;17.37;11.63;;;0.50;99.90;;;-141.84;77.44;18497.09;5009826;28;20257;-71
2023/12/05 03:21:06;;;;;;;15.97;11.50;;;0.50;99.90;;;-141.84;76.30;18478.81;5009686;28;20230;-71
2023/12/05 03:23:34;;;;;;;15.77;11.57;;;0.50;99.90;;;-141.84;77.57;18464.59;5010242;28;20204;-70
2023/12/05 03:26:03;;;;;;;17.13;11.77;;;0.50;99.90;;;-141.84;77.04;18513.34;5009415;28;20610;-71
2023/12/05 03:28:31;;;;;;;17.90;12.03;;;0.60;99.90;;;-141.84;76.55;18493.03;5009396;28;20250;-70
2023/12/05 03:31:01;;;;;;;17.60;12.17;;;0.50;99.90;;;-141.84;76.06;18456.47;5009239;28;20648;-71
2023/12/05 03:33:29;;;;;;;17.53;12.40;;;0.50;99.90;;;-141.84;75.21;18478.81;5009596;28;20232;-71
2023/12/05 03:35:57;;;;;;;14.80;10.93;;;0.60;99.90;;;-141.84;75.98;18484.91;5013219;28;20208;-71
2023/12/05 03:38:26;;;;;;;17.23;11.83;;;0.60;99.90;;;-141.84;75.35;18478.81;5013599;28;20785;-71
2023/12/05 03:40:53;;;;;;;16.00;11.77;;;0.60;99.90;;;-141.84;76.40;18474.75;5013109;28;20290;-71
2023/12/05 03:43:22;;;;;;;17.00;11.67;;;0.60;99.90;;;-141.84;76.49;18454.44;5013208;28;20865;-71
2023/12/05 03:45:50;;;;;;;16.87;11.83;;;0.60;99.90;;;-141.84;75.24;18472.72;5013115;28;20316;-70
2023/12/05 03:48:20;;;;;;;16.30;11.80;;;0.60;99.90;;;-141.84;75.53;18442.25;5013097;28;20230;-71
2023/12/05 03:50:48;;;;;;;17.57;12.00;;;0.60;99.90;;;-141.84;75.37;18497.09;5013465;28;20273;-70
2023/12/05 03:53:16;;;;;;;16.67;11.27;;;0.70;99.90;;;-141.84;75.20;18456.47;5013683;28;20226;-71
2023/12/05 03:55:45;;;;;;;15.67;11.70;;;0.70;99.90;;;-141.84;75.02;18482.88;5012992;28;20308;-70
2023/12/05 03:58:13;;;;;;;16.70;11.83;;;0.70;99.90;;;-141.84;75.56;18432.09;5029646;28;20257;-70
2023/12/05 04:00:41;;;;;;;16.93;11.57;;;0.70;99.90;;;-141.84;76.12;18456.47;5013190;28;20266;-70
2023/12/05 04:03:09;;;;;;;16.27;11.33;;;0.60;99.90;;;-141.84;75.77;18513.34;5012847;28;20226;-70
2023/12/05 04:05:39;;;;;;;16.83;11.47;;;0.60;99.90;;;-141.84;75.97;18495.06;5013548;28;20228;-71
2023/12/05 04:08:08;;;;;;;17.40;13.27;;;0.60;99.90;;;-141.84;76.16;18493.03;5012382;28;20273;-70
2023/12/05 04:10:36;;;;;;;16.23;11.67;;;0.70;99.90;;;-141.84;75.49;18462.56;5012582;28;20655;-71
2023/12/05 04:13:04;;;;;;;16.40;11.87;;;0.70;99.90;;;-141.84;76.09;18529.59;5012606;28;20226;-70
2023/12/05 04:15:32;;;;;;;16.83;11.87;;;0.70;99.90;;;-141.84;75.74;18511.31;5012713;28;20230;-71
2023/12/05 04:18:00;;;;;;;15.70;11.47;;;0.70;99.90;;;-141.84;77.06;18493.03;5012850;28;20241;-71
2023/12/05 04:20:29;;;;;;;15.87;11.87;;;0.60;99.90;;;-141.84;77.64;18491.00;4993568;28;20207;-71
2023/12/05 04:22:58;;;;;;;17.67;12.07;;;0.60;99.90;;;-141.84;77.43;18482.88;4992955;28;20227;-71
2023/12/05 04:25:27;;;;;;;18.87;11.90;;;0.60;99.90;;;-141.84;76.80;18476.78;4993004;28;20239;-71
2023/12/05 04:27:55;;;;;;;16.13;11.57;;;0.70;99.90;;;-141.84;76.50;18460.53;4992012;28;20267;-70
2023/12/05 04:30:23;;;;;;;15.90;11.10;;;0.70;99.90;;;-141.84;77.40;18509.28;5011843;28;20261;-71
2023/12/05 04:32:51;;;;;;;16.13;12.13;;;0.70;99.90;;;-141.84;75.95;18486.94;5011839;28;20239;-70
2023/12/05 04:35:20;;;;;;;16.40;12.03;;;0.70;99.90;;;-141.84;77.14;18511.31;5012795;28;20215;-71
2023/12/05 04:37:49;;;;;;;16.67;11.63;;;0.70;99.90;;;-141.84;76.98;18507.25;5011969;28;20219;-71
2023/12/05 04:40:19;;;;;;;16.40;11.77;;;0.70;99.90;;;-141.84;77.63;18507.25;5012160;28;20266;-70
2023/12/05 04:42:47;;;;;;;17.67;11.83;;;0.70;99.90;;;-141.84;78.81;18547.88;5010446;28;20276;-70
2023/12/05 04:45:16;;;;;;;17.83;12.47;;;0.70;99.90;;;-141.84;78.94;18525.53;5010355;28;20238;-71
2023/12/05 04:47:46;;;;;;;17.30;11.80;;;0.70;99.90;;;-141.84;79.72;18527.56;5006736;28;20204;-70
2023/12/05 04:50:14;;;;;;;15.90;11.47;;;0.70;99.90;;;-141.84;79.80;18517.41;4992800;28;20203;-70
2023/12/05 04:52:42;;;;;;;19.27;13.90;;;0.70;99.90;;;-141.84;80.40;18558.03;4992030;28;20629;-70
2023/12/05 04:55:10;;;;;;;17.17;11.67;;;0.70;99.90;;;-141.84;81.25;18566.16;5006612;28;20246;-70
2023/12/05 04:57:40;;;;;;;17.83;12.40;;;0.70;99.90;;;-141.84;81.08;18558.03;5027060;28;20292;-70
2023/12/05 05:00:12;;;;;;;17.53;11.73;;;0.60;99.90;;;-141.84;80.67;18562.09;5006411;28;20262;-70
2023/12/05 05:02:41;;;;;;;15.57;11.50;;;0.70;99.90;;;-141.84;81.26;18560.06;4992377;28;20192;-69
2023/12/05 05:05:09;;;;;;;17.10;11.53;;;0.70;99.90;;;-141.84;81.68;18570.22;5007747;28;20253;-69
2023/12/05 05:07:38;;;;;;;17.70;13.20;;;0.60;99.90;;;-141.84;81.24;18556.00;5011478;28;20218;-70
2023/12/05 05:10:08;;;;;;;15.70;11.90;;;0.70;99.90;;;-141.84;81.54;18584.47;5011464;28;20317;-70
2023/12/05 05:12:36;;;;;;;16.50;11.87;;;0.70;99.90;;;-141.84;80.67;18547.88;5011318;28;20313;-70
2023/12/05 05:15:07;;;;;;;15.90;11.80;;;0.70;99.90;;;-141.84;81.21;18576.31;5011392;28;20260;-70
2023/12/05 05:17:36;;;;;;;16.37;11.90;;;0.70;99.90;;;-141.84;81.75;18590.56;5012169;28;20277;-71
2023/12/05 05:20:05;;;;;;;17.40;12.73;;;0.70;99.90;;;-141.84;82.14;18566.16;5011243;28;20222;-71
2023/12/05 05:22:34;;;;;;;17.07;11.67;;;0.70;99.90;;;-141.84;81.06;18588.53;5011182;28;20306;-71
2023/12/05 05:25:03;;;;;;;19.40;12.97;;;0.70;99.90;;;-141.84;81.84;18566.16;5011031;28;20255;-71
2023/12/05 05:27:31;;;;;;;17.30;11.93;;;0.70;99.90;;;-141.84;83.24;18594.63;5011246;28;20227;-71
2023/12/05 05:29:59;;;;;;;17.63;12.10;;;0.60;99.90;;;-141.84;84.56;18681.97;5027911;28;20202;-70
2023/12/05 05:32:30;;;;;;;16.60;12.27;;;0.60;99.90;;;-141.84;85.93;18787.63;5031336;28;20235;-71
2023/12/05 05:34:58;;;;;;;17.50;12.13;;;0.60;99.90;;;-141.84;86.43;18814.03;5016412;28;20235;-71
2023/12/05 05:37:29;;;;;;;20.17;13.07;;;0.60;99.90;;;-141.84;87.08;18921.75;5010789;28;20276;-71
2023/12/05 05:39:58;;;;;;;18.40;12.47;;;0.60;99.90;;;-141.84;87.76;18980.66;5011041;28;20255;-70
2023/12/05 05:42:26;;;;;;;18.40;13.20;;;0.50;99.90;;;-141.84;86.87;18883.13;5010774;28;20259;-70
2023/12/05 05:44:54;;;;;;;17.43;11.97;;;0.60;99.90;;;-141.84;86.44;18816.06;5010430;28;20232;-71
2023/12/05 05:47:22;;;;;;;18.27;12.10;;;0.60;99.90;;;-141.84;87.12;18891.25;5011138;28;20230;-71
2023/12/05 05:49:52;;;;;;;18.97;12.17;;;0.60;99.90;;;-141.84;87.88;19011.13;5010453;28;20225;-70
2023/12/05 05:52:20;;;;;;;17.27;11.57;;;0.60;99.90;;;-141.84;88.24;19088.34;5010641;28;20728;-70
2023/12/05 05:54:50;;;;;;;16.47;12.17;;;0.60;99.90;;;-141.84;89.24;19362.69;5010731;28;20262;-70
2023/12/05 05:57:19;;;;;;;18.77;12.27;;;0.60;99.90;;;-141.84;89.11;19425.69;5022964;28;20264;-70
2023/12/05 05:59:47;;;;;;;16.67;11.90;;;0.60;99.90;;;-141.84;88.13;19094.44;5015025;28;20590;-70
2023/12/05 06:02:16;;;;;;;16.37;11.77;;;0.60;99.90;;;-141.84;88.26;19114.78;5011119;28;20373;-70
2023/12/05 06:04:44;;;;;;;18.73;12.60;;;0.70;99.90;;;-141.84;89.43;19372.84;5010325;28;20288;-70
2023/12/05 06:07:13;;;;;;;17.83;12.00;;;0.60;99.90;;;-141.84;90.81;20126.84;5010498;28;20246;-69
2023/12/05 06:09:43;;;;;;;21.83;13.30;;;0.60;99.90;;;-141.84;91.10;20421.56;5010577;28;20285;-70
2023/12/05 06:12:12;;;;;;;19.20;13.30;;;0.50;99.90;;;-141.84;90.90;20295.53;5010584;28;20238;-69
2023/12/05 06:14:40;;;;;;;18.10;13.07;;;0.60;99.90;;;-141.84;90.85;20281.31;5010528;28;20297;-70
2023/12/05 06:17:08;;;;;;;17.30;12.27;;;0.50;99.90;;;-141.84;89.55;19569.97;5010706;28;20243;-70
2023/12/05 06:19:36;;;;;;;19.87;12.87;;;0.60;99.90;;;-141.84;89.96;19787.41;5009786;28;20669;-70
2023/12/05 06:22:05;;;;;;;20.77;13.53;;;0.60;99.90;;;-141.84;90.87;20256.91;5010259;28;20246;-69
2023/12/05 06:24:35;;;;;;;18.80;13.33;;;0.60;99.90;;;-141.84;91.02;20275.22;5010007;28;20617;-71
2023/12/05 06:27:04;;;;;;;17.30;12.67;;;0.60;99.90;;;-141.84;92.63;21875.19;5010381;28;20238;-71
2023/12/05 06:29:32;;;;;;;21.13;13.50;;;0.50;99.90;;;-141.84;93.55;23722.00;5023062;28;20292;-70
2023/12/05 06:32:00;;;;;;;19.20;13.50;;;0.50;99.90;;;-141.84;93.82;24651.81;5006137;28;20243;-70
2023/12/05 06:34:28;;;;;;;20.07;13.33;;;0.50;99.90;;;-141.84;94.79;27605.56;5000871;28;20246;-70
2023/12/05 06:36:57;;;;;;;20.00;13.33;;;0.40;99.90;;;-141.84;95.70;29656.75;5010571;28;20579;-71
2023/12/05 06:39:25;;;;;;;20.13;13.63;;;0.40;99.90;;;-141.84;96.99;38750.44;5010148;28;20234;-70
2023/12/05 06:41:55;;;;;;;20.27;13.83;;;0.40;99.90;;;-141.84;98.10;44703.94;5010505;28;20207;-70
2023/12/05 06:44:23;;;;;;;20.73;14.10;;;0.40;99.90;;;-141.84;97.67;44180.38;5009288;28;20226;-71
2023/12/05 06:46:51;;;;;;;21.07;13.77;;;0.40;99.90;;;-141.84;98.28;46275.03;5010526;28;20221;-70
2023/12/05 06:49:19;;;;;;;19.30;13.40;;;0.40;99.90;;;-141.84;98.79;49157.03;4990444;28;20255;-70
2023/12/05 06:51:55;;;;;;;18.73;13.57;;;0.40;99.90;;;-141.84;99.45;52828.09;5003530;28;20222;-72
2023/12/05 06:54:23;;;;;;;20.77;13.50;;;0.30;99.90;;;-141.84;100.00;57027.72;4998419;28;20323;-71
2023/12/05 06:56:51;;;;;;;20.40;13.93;;;0.40;99.90;;;-141.84;100.00;58866.47;5010584;28;20202;-70
2023/12/05 06:59:21;;;;;;;21.00;14.70;;;0.40;99.90;;;-141.84;99.75;56239.94;5021209;28;20297;-70
2023/12/05 07:01:49;;;;;;;18.30;13.53;;;0.50;99.90;;;-141.84;100.00;59129.22;5029357;28;20680;-71
2023/12/05 07:04:18;;;;;;;20.20;13.73;;;0.40;99.90;;;-141.84;100.00;65703.56;5022504;28;20321;-71
2023/12/05 07:06:47;;;;;;;21.40;14.33;;;0.40;99.90;;;-141.84;100.00;69653.38;5006695;28;20231;-70
2023/12/05 07:09:15;;;;;;;20.57;13.30;;;0.40;99.90;;;-141.84;100.00;72816.03;5007588;28;20476;-69
2023/12/05 07:11:44;;;;;;;20.97;13.23;;;0.40;99.90;;;-141.84;100.00;70707.31;5012213;28;20237;-70
2023/12/05 07:14:13;;;;;;;21.10;13.47;;;0.50;99.90;;;-141.84;100.00;72288.75;5010991;28;20270;-70
2023/12/05 07:16:43;;;;;;;22.40;14.17;;;0.50;99.90;;;-141.84;100.00;75453.50;5010736;28;20231;-70
2023/12/05 07:19:11;;;;;;;20.87;13.80;;;0.50;99.90;;;-141.84;100.00;74398.31;5010037;28;20277;-71
2023/12/05 07:21:39;;;;;;;22.37;14.27;;;0.50;99.90;;;-141.84;100.00;73343.38;5011823;28;20241;-71
2023/12/05 07:24:07;;;;;;;18.70;12.77;;;0.50;99.90;;;-141.84;100.00;75189.69;5013519;28;20928;-72
2023/12/05 07:26:36;;;;;;;20.60;13.80;;;0.60;99.90;;;-141.84;100.00;77036.81;5011863;28;20683;-71
2023/12/05 07:29:04;;;;;;;20.20;13.93;;;0.60;99.90;;;-141.84;100.00;79677.06;5022281;28;20280;-71
2023/12/05 07:31:32;;;;;;;20.73;14.50;;;0.60;99.90;;;-141.84;100.00;83640.72;5016262;28;20222;-70
2023/12/05 07:34:02;;;;;;;20.73;13.83;;;0.80;99.90;;;-141.84;100.00;79148.88;5013216;28;20301;-71
2023/12/05 07:36:30;;;;;;;20.50;13.73;;;0.70;99.90;;;-141.84;100.00;83112.00;5013555;28;20675;-71
2023/12/05 07:38:59;;;;;;;20.80;14.07;;;0.70;99.90;;;-141.84;100.00;83112.00;5013331;28;20246;-70
2023/12/05 07:41:27;;;;;;;20.53;14.27;;;0.80;99.90;;;-141.84;100.00;80733.66;5009540;28;20273;-70
2023/12/05 07:43:56;;;;;;;21.60;14.53;;;0.80;99.90;;;-141.84;100.00;79412.97;5005103;28;20239;-71
2023/12/05 07:46:25;;;;;;;19.77;13.47;;;0.90;99.90;;;-141.84;100.00;79412.97;5012294;28;20258;-73
2023/12/05 07:48:53;;;;;;;21.20;14.20;;;0.90;99.90;;;-141.84;100.00;74398.31;5005834;28;20336;-73
2023/12/05 07:51:23;;;;;;;23.87;13.53;;;1.00;99.90;;;-141.84;100.00;75189.69;5013234;28;20232;-73
2023/12/05 07:53:53;;;;;;;22.03;13.90;;;0.90;99.90;;;-141.84;100.00;79412.97;5013303;28;20252;-73
2023/12/05 07:56:21;;;;;;;19.93;13.20;;;1.00;99.90;;;-141.84;100.00;81526.28;5009964;28;20261;-74
2023/12/05 07:58:49;;;;;;;18.60;13.27;;;0.90;99.90;;;-141.84;100.00;84962.78;5018283;28;20219;-73
2023/12/05 08:01:17;;;;;;;20.30;14.03;;;1.00;99.90;;;-141.84;100.00;87079.03;5010699;28;20322;-73
2023/12/05 08:03:45;;;;;;;22.03;14.77;;;1.00;99.90;;;-141.84;100.00;85491.75;5001803;28;20220;-73
2023/12/05 08:06:15;;;;;;;19.17;13.67;;;1.10;99.90;;;-141.84;100.00;85227.25;5004749;28;20250;-74
2023/12/05 08:08:44;;;;;;;20.87;14.23;;;1.10;99.90;;;-141.84;100.00;84962.78;5018232;28;20206;-71
2023/12/05 08:11:13;;;;;;;19.97;13.57;;;1.20;99.90;;;-141.84;100.00;83905.09;5014039;28;20195;-74
2023/12/05 08:13:41;;;;;;;19.17;13.17;;;1.20;99.90;;;-141.84;100.00;86020.75;5011546;28;20254;-73
2023/12/05 08:16:10;;;;;;;18.73;13.87;;;1.20;99.90;;;-141.84;100.00;88137.56;5012983;28;20266;-73
2023/12/05 08:18:38;;;;;;;20.93;13.50;;;1.20;99.90;;;-141.84;100.00;88666.94;5013670;28;20249;-73
2023/12/05 08:21:07;;;;;;;19.03;13.80;;;1.20;99.90;;;-141.84;100.00;86814.44;5011933;28;20318;-74
2023/12/05 08:23:36;;;;;;;21.07;14.17;;;1.20;99.90;;;-141.84;100.00;83112.00;5011725;28;20667;-73
2023/12/05 08:26:06;;;;;;;18.67;13.67;;;1.30;99.90;;;-141.84;100.00;79941.19;5001246;28;20235;-73
2023/12/05 08:28:34;;;;;;;19.13;13.03;;;1.20;99.90;;;-141.84;100.00;83376.34;5003105;28;20248;-74
2023/12/05 08:31:02;;;;;;;19.57;13.07;;;1.20;99.90;;;-141.84;100.00;80733.66;5032775;28;20719;-74
2023/12/05 08:33:31;;;;;;;20.20;13.17;;;1.30;99.90;;;-141.84;100.00;81526.28;5033367;28;20253;-75
2023/12/05 08:35:59;;;;;;;19.80;13.13;;;1.30;99.90;;;-141.84;100.00;83905.09;5032682;28;20329;-74
2023/12/05 08:38:27;;;;;;;22.13;13.87;;;1.30;99.90;;;-141.84;100.00;85491.75;5035341;28;20299;-73
2023/12/05 08:40:56;;;;;;;20.50;13.43;;;1.40;99.90;;;-141.84;100.00;86285.31;5033401;28;20234;-74
2023/12/05 08:43:26;;;;;;;19.63;13.73;;;1.40;99.90;;;-141.84;100.00;86549.84;5032532;28;20234;-75
2023/12/05 08:45:54;;;;;;;19.77;13.43;;;1.50;99.90;;;-141.84;100.00;86549.84;5033349;28;20229;-75
2023/12/05 08:48:22;;;;;;;23.20;13.27;;;1.50;99.90;;;-141.84;100.00;84433.91;5031447;28;20237;-74
2023/12/05 08:50:50;;;;;;;18.60;12.13;;;1.50;99.90;;;-141.84;100.00;86814.44;5013290;28;20205;-73
2023/12/05 08:53:19;;;;;;;19.20;13.83;;;1.50;99.90;;;-141.84;100.00;90785.09;5012895;28;20218;-73
2023/12/05 08:55:47;;;;;;;20.57;13.93;;;1.50;99.90;;;-141.84;100.00;85756.25;5014545;28;20235;-74
2023/12/05 08:58:15;;;;;;;17.80;13.20;;;1.60;99.90;;;-141.84;100.00;86285.31;5030307;28;20257;-74
2023/12/05 09:00:45;;;;;;;20.23;13.33;;;1.60;99.90;;;-141.84;100.00;87079.03;5011868;28;20324;-72
2023/12/05 09:03:14;;;;;;;19.20;13.77;;;1.60;99.90;;;-141.84;100.00;84433.91;5011678;28;20270;-73
2023/12/05 09:05:42;;;;;;;17.20;12.87;;;1.70;99.90;;;-141.84;100.00;84698.34;5012587;28;20207;-76
2023/12/05 09:08:10;;;;;;;17.37;12.50;;;1.70;99.90;;;-141.84;100.00;86814.44;5011889;28;20222;-75
2023/12/05 09:10:39;;;;;;;19.23;12.77;;;1.70;99.90;;;-141.84;100.00;88666.94;5012113;28;20278;-73
2023/12/05 09:13:07;;;;;;;18.83;13.20;;;1.80;99.90;;;-141.84;100.00;87872.91;5011347;28;20706;-73
2023/12/05 09:15:35;;;;;;;20.17;14.00;;;1.70;99.90;;;-141.84;100.00;83905.09;5011617;28;20263;-74
2023/12/05 09:18:05;;;;;;;20.73;14.23;;;1.70;99.90;;;-141.84;100.00;85756.25;5011138;28;20289;-73
2023/12/05 09:20:33;;;;;;;19.77;13.43;;;1.70;99.90;;;-141.84;100.00;86549.84;5011794;28;20202;-73
2023/12/05 09:23:02;;;;;;;18.33;12.77;;;1.70;99.90;;;-141.84;100.00;87079.03;5011516;28;20238;-74
2023/12/05 09:25:30;;;;;;;19.63;13.73;;;1.80;99.90;;;-141.84;100.00;89196.38;5011595;28;20232;-73
2023/12/05 09:27:58;;;;;;;20.43;14.17;;;1.80;99.90;;;-141.84;100.00;88666.94;5011511;28;20696;-73
2023/12/05 09:30:28;;;;;;;19.20;13.50;;;1.80;99.90;;;-141.84;100.00;89725.88;5031149;28;20775;-73
2023/12/05 09:32:56;;;;;;;19.23;13.60;;;1.90;99.90;;;-141.84;100.00;85491.75;5030334;28;20226;-75
2023/12/05 09:35:26;;;;;;;19.13;13.80;;;2.00;99.90;;;-141.84;100.00;82583.34;5031471;28;20214;-73
2023/12/05 09:37:56;;;;;;;20.17;13.70;;;2.10;99.90;;;-141.84;100.00;83640.72;5030666;28;20254;-73
2023/12/05 09:40:24;;;;;;;19.90;14.57;;;2.20;99.90;;;-141.84;100.00;83905.09;5030929;28;20294;-74
2023/12/05 09:42:55;;;;;;;20.43;14.13;;;2.20;99.90;;;-141.84;100.00;73343.38;5030653;28;20385;-74
2023/12/05 09:45:29;;;;;;;19.87;12.97;;;2.30;99.90;;;-141.84;100.00;69916.81;5030414;28;20811;-73
2023/12/05 09:48:04;;;;;;;18.47;13.60;;;2.30;99.90;;;-141.84;100.00;72552.38;5030791;28;20260;-72
2023/12/05 09:50:36;;;;;;;17.97;12.93;;;2.30;99.90;;;-141.84;100.00;72552.38;5012665;28;20229;-75
2023/12/05 09:53:09;;;;;;;17.60;12.83;;;2.30;99.90;;;-141.84;100.00;73870.81;5010769;28;20252;-72
2023/12/05 09:55:40;;;;;;;19.07;12.87;;;2.20;99.90;;;-141.84;100.00;75189.69;5010517;28;20303;-73
2023/12/05 09:58:12;;;;;;;17.93;12.53;;;2.30;99.90;;;-141.84;100.00;78092.72;5012483;28;20234;-72
2023/12/05 10:00:40;;;;;;;18.00;13.70;;;2.30;99.90;;;-141.84;100.00;77300.78;5030424;28;20257;-74
2023/12/05 10:03:11;;;;;;;17.97;13.57;;;2.30;99.90;;;-141.84;100.00;79412.97;5030068;28;20244;-73
2023/12/05 10:05:44;;;;;;;17.70;12.87;;;2.30;99.90;;;-141.84;100.00;81526.28;5030726;28;20667;-72